Time;durP1;ratioP1;P1;durP2;ratioP2;P2;SDS_P1;SDS_P2;PMS_P1;PMS_P2;Temp;Humidity;BMP_temperature;BMP_pressure;BME280_temperature;BME280_humidity;BME280_pressure;Samples;Min_cycle;Max_cycle;Signal;HPM_P1;HPM_P2
2021/12/18 00:00:52;;;;;;;5.27;2.57;;;5.20;99.90;;;;;;5137114;27;20724;-68
2021/12/18 00:03:19;;;;;;;5.70;2.33;;;5.20;99.90;;;;;;5131429;27;20326;-68
2021/12/18 00:05:49;;;;;;;8.23;2.60;;;5.10;99.90;;;;;;5131341;27;20290;-68
2021/12/18 00:08:17;;;;;;;5.13;2.17;;;5.10;99.90;;;;;;5132669;27;20690;-67
2021/12/18 00:10:46;;;;;;;7.70;2.50;;;5.10;99.90;;;;;;5134798;27;20664;-68
2021/12/18 00:13:13;;;;;;;5.93;2.40;;;5.00;99.90;;;;;;5134692;27;20233;-67
2021/12/18 00:15:40;;;;;;;5.43;2.27;;;5.10;99.90;;;;;;5136003;27;20522;-68
2021/12/18 00:18:06;;;;;;;5.90;2.30;;;5.10;99.90;;;;;;5134309;27;20615;-67
2021/12/18 00:20:36;;;;;;;6.83;2.53;;;5.00;99.90;;;;;;5134818;27;20294;-68
2021/12/18 00:23:03;;;;;;;9.23;2.70;;;5.10;99.90;;;;;;5135427;27;20263;-68
2021/12/18 00:25:32;;;;;;;5.37;2.70;;;5.10;99.90;;;;;;5135062;27;20231;-68
2021/12/18 00:27:59;;;;;;;5.70;2.57;;;5.00;99.90;;;;;;5134641;27;20294;-67
2021/12/18 00:30:26;;;;;;;8.33;2.83;;;5.10;99.90;;;;;;5136050;27;20618;-68
2021/12/18 00:32:54;;;;;;;8.77;2.43;;;5.10;99.90;;;;;;5144082;27;20210;-68
2021/12/18 00:35:21;;;;;;;8.13;2.60;;;5.10;99.90;;;;;;5139573;27;20199;-68
2021/12/18 00:37:48;;;;;;;7.50;2.37;;;5.10;99.90;;;;;;5133779;27;20322;-68
2021/12/18 00:40:21;;;;;;;5.93;2.20;;;5.10;99.90;;;;;;5134357;27;20248;-69
2021/12/18 00:42:57;;;;;;;6.53;2.37;;;5.10;99.90;;;;;;5134125;27;20200;-68
2021/12/18 00:45:24;;;;;;;8.70;2.30;;;5.00;99.90;;;;;;5134615;27;20252;-67
2021/12/18 00:47:51;;;;;;;7.40;2.13;;;5.00;99.90;;;;;;5134882;27;20294;-68
2021/12/18 00:50:20;;;;;;;6.47;2.33;;;5.10;99.90;;;;;;5141075;27;20283;-68
2021/12/18 00:52:47;;;;;;;5.23;2.23;;;5.00;99.90;;;;;;5133833;27;20294;-69
2021/12/18 00:55:15;;;;;;;6.73;2.27;;;5.10;99.90;;;;;;5134055;27;20607;-68
2021/12/18 00:57:43;;;;;;;4.63;1.83;;;5.00;99.90;;;;;;5133876;27;20249;-67
2021/12/18 01:00:15;;;;;;;6.73;2.00;;;5.10;99.90;;;;;;5148744;27;20195;-67
2021/12/18 01:02:44;;;;;;;6.30;2.37;;;5.10;99.90;;;;;;5134390;27;20573;-68
2021/12/18 01:05:12;;;;;;;6.97;2.50;;;5.10;99.90;;;;;;5145545;27;20231;-67
2021/12/18 01:07:40;;;;;;;5.40;1.80;;;5.00;99.90;;;;;;5134024;27;20218;-67
2021/12/18 01:10:23;;;;;;;4.03;2.03;;;5.00;99.90;;;;;;5133824;27;20231;-67
2021/12/18 01:12:53;;;;;;;4.23;2.20;;;5.00;99.90;;;;;;5133134;27;20203;-67
2021/12/18 01:15:27;;;;;;;5.70;2.13;;;5.10;99.90;;;;;;5143634;27;20214;-67
2021/12/18 01:23:24;;;;;;;5.97;2.00;;;5.10;99.90;;;;;;5133681;27;20702;-68
2021/12/18 01:25:51;;;;;;;5.77;2.17;;;5.10;99.90;;;;;;5133367;27;20299;-68
2021/12/18 01:28:18;;;;;;;5.10;2.60;;;5.10;99.90;;;;;;5133733;27;20659;-68
2021/12/18 01:30:47;;;;;;;5.40;2.43;;;5.10;99.90;;;;;;5133875;27;20313;-67
2021/12/18 01:33:14;;;;;;;6.60;2.07;;;5.10;99.90;;;;;;5133562;27;20238;-68
2021/12/18 01:35:42;;;;;;;5.73;2.60;;;5.10;99.90;;;;;;5132826;27;20727;-68
2021/12/18 01:38:09;;;;;;;11.17;2.70;;;5.00;99.90;;;;;;5133468;27;20211;-68
2021/12/18 01:40:36;;;;;;;5.33;2.70;;;5.10;99.90;;;;;;5133159;27;20200;-68
2021/12/18 01:46:20;;;;;;;5.77;2.23;;;5.00;99.90;;;;;;5133060;27;20278;-68
2021/12/18 01:51:48;;;;;;;5.27;2.27;;;5.00;99.90;;;;;;5134515;27;20219;-67
2021/12/18 01:54:16;;;;;;;8.27;2.73;;;4.90;99.90;;;;;;5146843;27;20202;-68
2021/12/18 01:56:43;;;;;;;6.33;2.57;;;4.90;99.90;;;;;;5133899;27;20318;-67
2021/12/18 01:59:10;;;;;;;5.13;2.20;;;4.90;99.90;;;;;;5133978;27;20581;-68
2021/12/18 02:01:38;;;;;;;8.07;2.67;;;4.80;99.90;;;;;;5132793;27;20230;-67
2021/12/18 02:04:05;;;;;;;8.13;2.50;;;4.70;99.90;;;;;;5132433;27;20307;-68
2021/12/18 02:06:32;;;;;;;7.97;2.73;;;4.60;99.90;;;;;;5133748;27;20296;-68
2021/12/18 02:08:59;;;;;;;7.97;3.20;;;4.60;99.90;;;;;;5134218;27;20978;-68
2021/12/18 02:11:32;;;;;;;9.17;2.83;;;4.50;99.90;;;;;;5131996;27;20318;-68
2021/12/18 02:14:09;;;;;;;5.40;2.57;;;4.40;99.90;;;;;;5133368;27;20298;-67
2021/12/18 02:19:48;;;;;;;7.97;3.53;;;4.20;99.90;;;;;;5139432;27;20617;-66
2021/12/18 02:22:18;;;;;;;5.33;2.70;;;4.10;99.90;;;;;;5133921;27;20199;-66
2021/12/18 02:24:45;;;;;;;6.70;2.47;;;4.00;99.90;;;;;;5133356;27;20231;-67
2021/12/18 02:27:12;;;;;;;6.97;2.77;;;4.00;99.90;;;;;;5132908;27;20278;-67
2021/12/18 02:29:40;;;;;;;5.03;2.63;;;3.90;99.90;;;;;;5133589;27;20593;-67
2021/12/18 02:32:09;;;;;;;6.10;3.03;;;4.20;99.90;;;;;;5132002;27;20766;-67
2021/12/18 02:34:38;;;;;;;5.93;2.57;;;3.80;99.90;;;;;;5132776;27;20223;-68
2021/12/18 02:37:07;;;;;;;8.03;2.93;;;3.80;99.90;;;;;;5133800;27;20218;-68
2021/12/18 02:39:54;;;;;;;5.83;2.20;;;3.70;99.90;;;;;;5145747;27;20222;-67
2021/12/18 02:42:22;;;;;;;6.37;2.30;;;3.70;99.90;;;;;;5132245;27;20195;-68
2021/12/18 02:44:50;;;;;;;3.70;2.37;;;3.60;99.90;;;;;;5132237;27;20239;-67
2021/12/18 02:47:17;;;;;;;6.40;2.57;;;3.60;99.90;;;;;;5131579;27;20207;-66
2021/12/18 02:49:45;;;;;;;6.37;2.70;;;3.50;99.90;;;;;;5141318;27;20207;-66
2021/12/18 02:52:13;;;;;;;6.30;2.80;;;3.50;99.90;;;;;;5131276;27;20692;-68
2021/12/18 02:54:43;;;;;;;7.03;2.70;;;3.40;99.90;;;;;;5132059;27;20249;-68
2021/12/18 02:57:11;;;;;;;5.07;2.47;;;3.40;99.90;;;;;;5119765;27;20218;-68
2021/12/18 02:59:45;;;;;;;9.20;3.30;;;3.40;99.90;;;;;;5132571;27;20298;-68
2021/12/18 03:02:13;;;;;;;6.13;2.70;;;3.30;99.90;;;;;;5133175;27;20282;-68
2021/12/18 03:04:41;;;;;;;7.00;2.43;;;3.30;99.90;;;;;;5132266;27;20299;-68
2021/12/18 03:07:11;;;;;;;7.30;3.13;;;3.20;99.90;;;;;;5132838;27;20258;-68
2021/12/18 03:23:39;;;;;;;4.93;2.63;;;3.10;99.90;;;;;;5098067;27;20663;-68
2021/12/18 03:26:06;;;;;;;10.47;2.83;;;3.10;99.90;;;;;;5132088;27;20292;-68
2021/12/18 03:28:34;;;;;;;3.37;1.97;;;3.10;99.90;;;;;;5132310;27;20754;-68
2021/12/18 03:31:01;;;;;;;8.27;3.10;;;3.10;99.90;;;;;;5131724;27;20215;-67
2021/12/18 03:33:28;;;;;;;6.20;2.40;;;3.10;99.90;;;;;;5131790;27;20581;-68
2021/12/18 03:35:55;;;;;;;4.43;2.33;;;3.10;99.90;;;;;;5132152;27;20294;-67
2021/12/18 03:38:22;;;;;;;6.43;2.73;;;3.10;99.90;;;;;;5132539;28;20711;-67
2021/12/18 03:40:49;;;;;;;5.67;2.77;;;3.10;99.90;;;;;;5132545;27;20201;-68
2021/12/18 03:43:16;;;;;;;6.77;2.50;;;3.10;99.90;;;;;;5135696;27;20238;-68
2021/12/18 03:45:44;;;;;;;8.37;2.90;;;3.20;99.90;;;;;;5134386;27;20631;-68
2021/12/18 03:48:11;;;;;;;6.43;2.70;;;3.20;99.90;;;;;;5124110;27;20642;-68
2021/12/18 03:50:38;;;;;;;6.20;2.73;;;3.20;99.90;;;;;;5136397;27;20715;-67
2021/12/18 03:53:05;;;;;;;7.70;2.90;;;3.30;99.90;;;;;;5135445;27;20264;-68
2021/12/18 03:55:32;;;;;;;7.33;2.77;;;3.30;99.90;;;;;;5135870;27;20355;-68
2021/12/18 03:57:59;;;;;;;5.30;2.87;;;3.30;99.90;;;;;;5135936;27;20222;-68
2021/12/18 04:00:26;;;;;;;7.30;2.90;;;3.40;99.90;;;;;;5135521;27;20528;-68
2021/12/18 04:02:54;;;;;;;6.37;2.90;;;3.30;99.90;;;;;;5147231;27;20238;-67
2021/12/18 04:05:21;;;;;;;9.50;2.97;;;3.40;99.90;;;;;;5133451;27;20294;-68
2021/12/18 04:07:50;;;;;;;5.57;2.83;;;3.40;99.90;;;;;;5138828;27;20262;-68
2021/12/18 04:10:18;;;;;;;5.63;2.90;;;3.50;99.90;;;;;;5136259;27;20298;-67
2021/12/18 04:12:48;;;;;;;7.37;3.07;;;3.50;99.90;;;;;;5135050;27;20706;-68
2021/12/18 04:15:15;;;;;;;5.57;3.07;;;3.60;99.90;;;;;;5135030;27;20207;-68
2021/12/18 04:17:42;;;;;;;5.13;2.83;;;3.60;99.90;;;;;;5136313;27;20242;-68
2021/12/18 04:20:11;;;;;;;9.97;3.40;;;3.60;99.90;;;;;;5135542;27;20242;-67
2021/12/18 04:22:38;;;;;;;5.97;3.47;;;3.70;99.90;;;;;;5135862;27;20722;-67
2021/12/18 04:25:06;;;;;;;7.10;3.47;;;3.60;99.90;;;;;;5135139;27;20346;-67
2021/12/18 04:27:33;;;;;;;8.43;3.20;;;3.70;99.90;;;;;;5135502;27;20612;-68
2021/12/18 04:30:00;;;;;;;6.63;3.60;;;3.80;99.90;;;;;;5124369;27;20231;-68
2021/12/18 04:32:27;;;;;;;7.60;3.30;;;3.70;99.90;;;;;;5134112;27;20219;-68
2021/12/18 04:34:54;;;;;;;9.77;4.03;;;3.70;99.90;;;;;;5134724;27;20205;-67
2021/12/18 04:37:23;;;;;;;8.80;3.50;;;3.70;99.90;;;;;;5135351;27;20504;-67
2021/12/18 04:39:50;;;;;;;8.13;3.70;;;3.80;99.90;;;;;;5134913;27;20210;-68
2021/12/18 04:42:17;;;;;;;8.47;3.90;;;3.80;99.90;;;;;;5134925;27;20203;-67
2021/12/18 04:44:44;;;;;;;7.60;3.33;;;3.80;99.90;;;;;;5134839;27;20589;-67
2021/12/18 04:47:11;;;;;;;11.60;3.43;;;3.80;99.90;;;;;;5134332;27;20203;-68
2021/12/18 04:49:38;;;;;;;11.43;3.60;;;3.90;99.90;;;;;;5134886;27;20276;-67
2021/12/18 04:52:05;;;;;;;6.60;3.37;;;3.90;99.90;;;;;;5134799;27;20310;-68
2021/12/18 04:54:33;;;;;;;4.63;2.87;;;3.90;99.90;;;;;;5134249;27;20296;-68
2021/12/18 04:57:00;;;;;;;8.33;3.70;;;3.90;99.90;;;;;;5142109;27;20322;-68
2021/12/18 04:59:27;;;;;;;6.70;3.27;;;3.90;99.90;;;;;;5155841;27;20290;-68
2021/12/18 05:01:54;;;;;;;5.37;3.17;;;3.80;99.90;;;;;;5141097;27;20229;-68
2021/12/18 05:04:21;;;;;;;7.03;3.70;;;3.80;99.90;;;;;;5143756;27;20294;-67
2021/12/18 05:06:51;;;;;;;5.93;3.10;;;3.80;99.90;;;;;;5134396;27;20246;-67
2021/12/18 05:09:19;;;;;;;6.13;3.20;;;3.70;99.90;;;;;;5135562;27;20209;-67
2021/12/18 05:11:48;;;;;;;7.90;3.37;;;3.70;99.90;;;;;;5135640;27;20314;-68
2021/12/18 05:14:15;;;;;;;8.90;3.33;;;3.70;99.90;;;;;;5135052;27;20613;-67
2021/12/18 05:16:42;;;;;;;7.13;3.63;;;3.70;99.90;;;;;;5135017;27;20267;-68
2021/12/18 05:19:09;;;;;;;7.33;3.37;;;3.70;99.90;;;;;;5135047;27;20235;-68
2021/12/18 05:21:36;;;;;;;9.33;4.17;;;3.70;99.90;;;;;;5134740;27;20245;-68
2021/12/18 05:24:04;;;;;;;6.90;3.57;;;3.70;99.90;;;;;;5135498;27;20253;-69
2021/12/18 05:26:31;;;;;;;6.80;3.30;;;3.70;99.90;;;;;;5133961;27;20243;-67
2021/12/18 05:28:59;;;;;;;7.33;4.17;;;3.70;99.90;;;;;;5135449;27;20199;-67
2021/12/18 05:31:26;;;;;;;10.93;3.97;;;3.70;99.90;;;;;;5135060;27;20290;-68
2021/12/18 05:33:58;;;;;;;7.57;3.57;;;3.70;99.90;;;;;;5134853;27;20302;-68
2021/12/18 05:36:33;;;;;;;10.10;4.13;;;3.80;99.90;;;;;;5135195;27;20199;-68
2021/12/18 05:39:08;;;;;;;8.00;4.33;;;3.70;99.90;;;;;;5134683;27;20214;-68
2021/12/18 05:41:36;;;;;;;8.70;4.27;;;3.70;99.90;;;;;;5134623;27;20770;-67
2021/12/18 05:44:05;;;;;;;8.03;3.90;;;3.70;99.90;;;;;;5135002;27;20322;-68
2021/12/18 05:46:32;;;;;;;7.50;3.77;;;3.70;99.90;;;;;;5134311;27;20211;-67
2021/12/18 05:48:59;;;;;;;10.17;3.97;;;3.70;99.90;;;;;;5133452;27;20271;-67
2021/12/18 05:51:26;;;;;;;6.07;3.70;;;3.70;99.90;;;;;;5134004;27;20313;-68
2021/12/18 05:53:53;;;;;;;7.93;4.20;;;3.70;99.90;;;;;;5134418;27;20208;-68
2021/12/18 05:56:20;;;;;;;8.33;3.80;;;3.70;99.90;;;;;;5133340;27;20609;-67
2021/12/18 05:58:47;;;;;;;5.57;3.93;;;3.70;99.90;;;;;;5133775;27;20520;-68
2021/12/18 06:01:18;;;;;;;6.87;3.57;;;3.70;99.90;;;;;;5142900;27;20207;-67
2021/12/18 06:03:46;;;;;;;7.50;3.53;;;3.70;99.90;;;;;;5120948;27;20749;-69
2021/12/18 06:06:13;;;;;;;8.27;3.60;;;3.70;99.90;;;;;;5133032;27;20267;-68
2021/12/18 06:08:42;;;;;;;8.70;3.73;;;3.70;99.90;;;;;;5133580;27;20254;-68
2021/12/18 06:11:13;;;;;;;9.67;3.47;;;3.70;99.90;;;;;;5134143;27;20235;-68
2021/12/18 06:13:40;;;;;;;7.43;3.70;;;3.70;99.90;;;;;;5133500;27;20188;-68
2021/12/18 06:16:07;;;;;;;6.73;3.87;;;3.70;99.90;;;;;;5133966;27;20297;-68
2021/12/18 06:18:37;;;;;;;6.57;3.47;;;3.80;99.90;;;;;;5134664;27;20266;-68
2021/12/18 06:21:04;;;;;;;7.90;3.73;;;3.80;99.90;;;;;;5133548;27;20274;-68
2021/12/18 06:23:31;;;;;;;6.60;3.57;;;3.80;99.90;;;;;;5133406;27;20227;-68
2021/12/18 06:25:58;;;;;;;7.63;3.80;;;3.80;99.90;;;;;;5136332;27;20334;-67
2021/12/18 06:28:25;;;;;;;8.27;4.03;;;3.80;99.90;;;;;;5137800;27;20289;-68
2021/12/18 06:30:52;;;;;;;7.20;3.23;;;3.90;99.90;;;;;;5147385;27;20234;-68
2021/12/18 06:33:19;;;;;;;5.37;3.17;;;3.90;99.90;;;;;;5133023;27;20639;-68
2021/12/18 06:35:47;;;;;;;7.27;3.77;;;3.90;99.90;;;;;;5133598;27;20211;-67
2021/12/18 06:38:15;;;;;;;7.93;3.23;;;3.90;99.90;;;;;;5133851;27;20306;-67
2021/12/18 06:40:42;;;;;;;6.77;3.23;;;3.90;99.90;;;;;;5148373;27;20675;-67
2021/12/18 06:43:09;;;;;;;7.33;3.77;;;3.90;99.90;;;;;;5133271;27;20234;-67
2021/12/18 06:45:36;;;;;;;7.80;3.60;;;3.90;99.90;;;;;;5133728;27;20207;-68
2021/12/18 06:48:03;;;;;;;10.10;3.97;;;3.90;99.90;;;;;;5145755;27;20335;-70
2021/12/18 06:50:30;;;;;;;9.57;3.63;;;4.00;99.90;;;;;;5133522;27;20199;-67
2021/12/18 06:52:58;;;;;;;6.53;2.93;;;4.00;99.90;;;;;;5132237;27;20310;-68
2021/12/18 06:55:26;;;;;;;5.43;2.97;;;4.00;99.90;;;;;;5134276;27;20286;-71
2021/12/18 06:57:53;;;;;;;7.03;3.37;;;4.00;99.90;;;;;;5145058;27;20242;-70
2021/12/18 07:00:22;;;;;;;7.33;3.70;;;3.90;99.90;;;;;;5135227;27;20234;-72
2021/12/18 07:02:49;;;;;;;9.33;3.43;;;3.90;99.90;;;;;;5145074;27;20587;-71
2021/12/18 07:05:16;;;;;;;5.93;3.07;;;4.00;99.90;;;;;;5135276;27;20240;-70
2021/12/18 07:07:44;;;;;;;8.93;3.70;;;3.90;99.90;;;;;;5140598;27;20229;-71
2021/12/18 07:10:14;;;;;;;7.87;3.07;;;3.90;99.90;;;;;;5140436;27;20256;-71
2021/12/18 07:12:45;;;;;;;4.00;2.83;;;3.90;99.90;;;;;;5151002;27;20527;-71
2021/12/18 07:15:13;;;;;;;6.13;3.37;;;3.90;99.90;;;;;;5132106;27;20233;-70
2021/12/18 07:17:41;;;;;;;9.20;3.57;;;3.90;99.90;;;;;;5127688;27;20211;-70
2021/12/18 07:20:10;;;;;;;7.03;3.13;;;3.90;99.90;;;;;;5134029;27;20211;-70
2021/12/18 07:22:37;;;;;;;6.53;3.03;;;3.90;99.90;;;;;;5136004;27;20332;-70
2021/12/18 07:25:04;;;;;;;7.27;3.77;;;3.80;99.90;;;;;;5130671;27;20266;-69
2021/12/18 07:27:34;;;;;;;8.27;4.00;;;3.80;99.90;;;;;;5129891;27;20268;-70
2021/12/18 07:30:01;;;;;;;7.17;4.27;;;3.80;99.90;;;;;;5137397;27;20294;-71
2021/12/18 07:32:29;;;;;;;8.00;4.10;;;3.80;99.90;;;;;;5122087;27;20225;-69
2021/12/18 07:34:57;;;;;;;12.00;5.40;;;3.80;99.90;;;;;;5131293;27;20203;-70
2021/12/18 07:37:25;;;;;;;9.47;4.43;;;3.80;99.90;;;;;;5138861;27;20227;-67
2021/12/18 07:39:52;;;;;;;8.27;4.67;;;3.80;99.90;;;;;;5142819;27;20242;-68
2021/12/18 07:42:20;;;;;;;10.30;4.83;;;3.80;99.90;;;;;;5129783;28;20200;-68
2021/12/18 07:44:48;;;;;;;8.67;4.80;;;3.80;99.90;;;;;;5128683;28;20259;-68
2021/12/18 07:47:15;;;;;;;8.27;5.17;;;3.80;99.90;;;;;;5138208;27;20230;-68
2021/12/18 07:49:43;;;;;;;8.87;5.47;;;3.80;99.90;;;;;;5134723;27;20203;-68
2021/12/18 07:52:10;;;;;;;9.80;6.00;;;3.90;99.90;;;;;;5131516;27;21893;-68
2021/12/18 07:54:37;;;;;;;11.97;6.73;;;3.80;99.90;;;;;;5128594;27;20195;-69
2021/12/18 07:57:04;;;;;;;16.03;7.10;;;3.80;99.90;;;;;;5128857;28;20258;-68
2021/12/18 07:59:31;;;;;;;8.73;6.83;;;3.80;99.90;;;;;;5133585;27;20299;-69
2021/12/18 08:02:01;;;;;;;12.83;7.93;;;3.70;99.90;;;;;;5141777;27;20235;-68
2021/12/18 08:04:28;;;;;;;10.70;7.07;;;3.70;99.90;;;;;;5133453;27;20200;-69
2021/12/18 08:06:55;;;;;;;13.63;8.23;;;3.70;99.90;;;;;;5137300;27;20742;-68
2021/12/18 08:09:22;;;;;;;16.47;9.27;;;3.70;99.90;;;;;;5133146;27;20278;-67
2021/12/18 08:11:49;;;;;;;11.20;8.03;;;3.70;99.90;;;;;;5132407;27;20227;-68
2021/12/18 08:14:16;;;;;;;14.47;9.20;;;3.70;99.90;;;;;;5137661;27;20257;-68
2021/12/18 08:16:43;;;;;;;13.77;8.53;;;3.70;99.90;;;;;;5133174;27;20264;-67
2021/12/18 08:19:11;;;;;;;13.57;8.07;;;3.70;99.90;;;;;;5129843;28;20397;-68
2021/12/18 08:21:38;;;;;;;13.27;8.80;;;3.70;99.90;;;;;;5125758;28;20251;-68
2021/12/18 08:24:05;;;;;;;15.67;9.77;;;3.70;99.90;;;;;;5123049;28;20229;-68
2021/12/18 08:26:32;;;;;;;20.33;12.87;;;3.80;99.90;;;;;;5139764;27;20277;-67
2021/12/18 08:28:59;;;;;;;20.50;11.47;;;3.80;99.90;;;;;;5131697;27;20250;-67
2021/12/18 08:31:26;;;;;;;14.03;8.90;;;3.80;99.90;;;;;;5149074;27;20279;-67
2021/12/18 08:33:53;;;;;;;16.40;8.87;;;3.90;99.90;;;;;;5136812;27;20337;-68
2021/12/18 08:36:21;;;;;;;14.83;9.03;;;3.80;99.90;;;;;;5124831;27;20204;-68
2021/12/18 08:38:48;;;;;;;16.23;9.37;;;3.80;99.90;;;;;;5137504;27;20198;-68
2021/12/18 08:41:16;;;;;;;16.77;10.47;;;3.80;99.90;;;;;;5136171;27;20242;-68
2021/12/18 08:43:43;;;;;;;18.03;10.73;;;3.80;99.90;;;;;;5142644;27;20210;-68
2021/12/18 08:46:10;;;;;;;18.27;10.40;;;3.80;99.90;;;;;;5138111;27;20231;-68
2021/12/18 08:48:37;;;;;;;11.70;8.63;;;3.80;99.90;;;;;;5138702;27;20242;-68
2021/12/18 08:51:04;;;;;;;18.73;11.03;;;3.80;99.90;;;;;;5143156;27;20214;-68
2021/12/18 08:53:32;;;;;;;14.33;9.10;;;3.80;99.90;;;;;;5145725;27;20371;-68
2021/12/18 08:55:59;;;;;;;17.57;9.93;;;3.80;99.90;;;;;;5144356;27;20214;-68
2021/12/18 08:58:26;;;;;;;20.80;11.03;;;3.70;99.90;;;;;;5133918;27;20211;-68
2021/12/18 09:00:53;;;;;;;18.80;10.27;;;3.70;99.90;;;;;;5135500;27;20227;-67
2021/12/18 09:03:20;;;;;;;19.47;10.33;;;3.70;99.90;;;;;;5136361;27;20263;-70
2021/12/18 09:05:48;;;;;;;18.37;10.87;;;3.70;99.90;;;;;;5136438;27;20272;-69
2021/12/18 09:08:15;;;;;;;22.73;11.37;;;3.70;99.90;;;;;;5136737;27;20199;-70
2021/12/18 09:10:44;;;;;;;25.83;12.60;;;3.70;99.90;;;;;;5140193;27;20248;-69
2021/12/18 09:13:12;;;;;;;22.57;11.60;;;3.70;99.90;;;;;;5140040;27;20222;-69
2021/12/18 09:15:39;;;;;;;23.80;12.43;;;3.70;99.90;;;;;;5130029;27;20211;-69
2021/12/18 09:18:06;;;;;;;24.10;12.23;;;3.70;99.90;;;;;;5136764;27;20294;-69
2021/12/18 09:20:33;;;;;;;22.53;11.90;;;3.70;99.90;;;;;;5137697;27;20202;-69
2021/12/18 09:23:01;;;;;;;26.93;12.60;;;3.70;99.90;;;;;;5137540;27;20286;-69
2021/12/18 09:25:29;;;;;;;22.67;13.63;;;3.70;99.90;;;;;;5138103;27;20234;-69
2021/12/18 09:27:57;;;;;;;24.37;12.23;;;3.70;99.90;;;;;;5131741;27;20211;-69
2021/12/18 09:30:25;;;;;;;26.63;13.30;;;3.70;99.90;;;;;;5117863;27;20207;-70
2021/12/18 09:32:52;;;;;;;24.97;12.93;;;3.60;99.90;;;;;;5134598;27;20227;-70
2021/12/18 09:35:21;;;;;;;22.30;12.67;;;3.60;99.90;;;;;;5139406;27;20203;-68
2021/12/18 09:37:48;;;;;;;27.03;13.10;;;3.60;99.90;;;;;;5137613;27;20207;-69
2021/12/18 09:40:17;;;;;;;21.47;12.30;;;3.60;99.90;;;;;;5149389;27;20230;-69
2021/12/18 09:42:44;;;;;;;22.13;13.13;;;3.60;99.90;;;;;;5142566;27;20203;-68
2021/12/18 09:45:13;;;;;;;25.30;11.60;;;3.60;99.90;;;;;;5141035;27;20231;-69
2021/12/18 09:47:41;;;;;;;18.50;10.60;;;3.60;99.90;;;;;;5138410;27;20744;-69
2021/12/18 09:50:09;;;;;;;21.23;10.97;;;3.60;99.90;;;;;;5136013;27;20211;-70
2021/12/18 09:52:36;;;;;;;19.43;11.10;;;3.60;99.90;;;;;;5153947;27;20238;-69
2021/12/18 09:55:05;;;;;;;16.23;10.63;;;3.50;99.90;;;;;;5139111;27;20234;-70
2021/12/18 09:57:33;;;;;;;16.40;10.37;;;3.50;99.90;;;;;;5135238;27;20233;-68
2021/12/18 10:00:00;;;;;;;16.17;10.63;;;3.50;99.90;;;;;;5147697;27;20204;-69
2021/12/18 10:02:28;;;;;;;19.43;10.70;;;3.40;99.90;;;;;;5129131;27;20207;-69
2021/12/18 10:04:57;;;;;;;17.33;11.23;;;3.50;99.90;;;;;;5132346;27;20208;-69
2021/12/18 10:07:26;;;;;;;17.50;10.87;;;3.50;99.90;;;;;;5133846;27;20276;-67
2021/12/18 10:09:56;;;;;;;16.20;10.83;;;3.50;99.90;;;;;;5133907;27;20287;-69
2021/12/18 10:12:24;;;;;;;20.63;12.77;;;3.50;99.90;;;;;;5133668;27;20252;-68
2021/12/18 10:14:53;;;;;;;22.10;11.57;;;3.60;99.90;;;;;;5139232;27;20668;-69
2021/12/18 10:17:27;;;;;;;21.50;13.57;;;3.60;99.90;;;;;;5133017;27;20204;-69
2021/12/18 10:20:16;;;;;;;22.67;12.83;;;3.60;99.90;;;;;;5139731;27;20215;-69
2021/12/18 10:22:47;;;;;;;20.80;12.30;;;3.60;99.90;;;;;;5115294;27;20200;-68
2021/12/18 10:25:16;;;;;;;27.63;14.40;;;3.60;99.90;;;;;;5132564;27;20272;-68
2021/12/18 10:27:47;;;;;;;23.50;14.47;;;3.60;99.90;;;;;;5133506;27;20591;-69
2021/12/18 10:30:19;;;;;;;24.90;13.93;;;3.60;99.90;;;;;;5131468;27;20248;-69
2021/12/18 10:32:59;;;;;;;26.77;14.60;;;3.70;99.90;;;;;;5133290;27;20988;-68
2021/12/18 10:35:44;;;;;;;25.77;14.13;;;3.70;99.90;;;;;;5136452;27;20199;-70
2021/12/18 10:38:45;;;;;;;29.03;16.13;;;3.70;99.90;;;;;;5132383;27;20652;-68
2021/12/18 10:41:23;;;;;;;31.43;16.93;;;3.70;99.90;;;;;;5124878;27;20712;-69
2021/12/18 10:44:02;;;;;;;34.97;16.97;;;3.70;99.90;;;;;;5133327;27;20699;-68
2021/12/18 10:46:31;;;;;;;33.90;15.13;;;3.60;99.90;;;;;;5133422;27;20290;-69
2021/12/18 10:49:01;;;;;;;34.77;17.17;;;3.60;99.90;;;;;;5132464;27;20203;-69
2021/12/18 10:51:31;;;;;;;32.17;15.73;;;3.60;99.90;;;;;;5129430;27;20198;-68
2021/12/18 10:54:07;;;;;;;25.73;14.03;;;3.60;99.90;;;;;;5132900;27;20748;-69
2021/12/18 10:56:38;;;;;;;28.30;15.33;;;3.60;99.90;;;;;;5133044;27;20323;-69
2021/12/18 10:59:07;;;;;;;24.80;13.53;;;3.60;99.90;;;;;;5133185;27;20287;-69
2021/12/18 11:01:37;;;;;;;23.50;13.20;;;3.60;99.90;;;;;;5133000;27;20213;-69
2021/12/18 11:04:04;;;;;;;24.53;13.43;;;3.60;99.90;;;;;;5132766;27;20207;-69
2021/12/18 11:06:33;;;;;;;25.50;14.13;;;3.50;99.90;;;;;;5132223;27;20282;-68
2021/12/18 11:09:11;;;;;;;21.23;13.73;;;3.60;99.90;;;;;;5130484;27;20289;-69
2021/12/18 11:14:33;;;;;;;25.07;12.83;;;3.50;99.90;;;;;;5141500;27;20676;-68
2021/12/18 11:17:03;;;;;;;22.37;14.40;;;3.50;99.90;;;;;;5133251;27;20229;-68
2021/12/18 11:19:32;;;;;;;23.93;14.27;;;3.40;99.90;;;;;;5132458;27;20214;-68
2021/12/18 11:22:03;;;;;;;26.87;15.57;;;3.40;99.90;;;;;;5132659;27;20301;-69
2021/12/18 11:24:34;;;;;;;25.90;14.90;;;3.40;99.90;;;;;;5131831;27;20518;-69
2021/12/18 11:27:04;;;;;;;26.43;16.17;;;3.40;99.90;;;;;;5132134;27;20346;-70
2021/12/18 11:29:40;;;;;;;27.57;14.83;;;3.40;99.90;;;;;;5132543;27;20294;-70
2021/12/18 11:32:08;;;;;;;25.40;15.40;;;3.40;99.90;;;;;;5131975;27;20559;-69
2021/12/18 11:34:37;;;;;;;23.07;14.97;;;3.40;99.90;;;;;;5132414;28;20315;-69
2021/12/18 11:37:07;;;;;;;26.73;15.57;;;3.40;99.90;;;;;;5132189;27;20286;-69
2021/12/18 11:39:36;;;;;;;27.23;16.50;;;3.40;99.90;;;;;;5132264;27;20297;-68
2021/12/18 11:42:04;;;;;;;29.20;16.90;;;3.40;99.90;;;;;;5131505;28;20568;-68
2021/12/18 11:44:35;;;;;;;26.23;15.63;;;3.40;99.90;;;;;;5132966;27;20283;-69
2021/12/18 11:47:24;;;;;;;27.93;16.83;;;3.40;99.90;;;;;;5128131;27;20222;-69
2021/12/18 11:49:51;;;;;;;27.70;17.33;;;3.30;99.90;;;;;;5136130;27;20286;-67
2021/12/18 11:52:20;;;;;;;29.07;16.90;;;3.30;99.90;;;;;;5132945;27;20699;-69
2021/12/18 11:54:50;;;;;;;25.50;16.30;;;3.30;99.90;;;;;;5139300;27;20777;-69
2021/12/18 11:57:48;;;;;;;25.90;15.97;;;3.30;99.90;;;;;;5132796;28;20599;-71
2021/12/18 12:00:44;;;;;;;26.47;15.27;;;3.30;99.90;;;;;;5140508;27;20190;-70
2021/12/18 12:03:14;;;;;;;29.67;13.73;;;3.40;99.90;;;;;;5149960;27;20202;-70
2021/12/18 12:05:44;;;;;;;26.50;14.60;;;3.40;99.90;;;;;;5150784;27;20230;-70
2021/12/18 12:08:34;;;;;;;23.23;13.77;;;3.40;99.90;;;;;;5141506;27;21124;-70
2021/12/18 12:11:23;;;;;;;23.60;14.37;;;3.40;99.90;;;;;;5127312;27;20311;-69
2021/12/18 12:14:19;;;;;;;24.57;14.63;;;3.30;99.90;;;;;;5144618;27;20218;-69
2021/12/18 12:17:10;;;;;;;22.67;13.60;;;3.30;99.90;;;;;;5120982;27;20192;-70
2021/12/18 12:19:56;;;;;;;20.77;13.33;;;3.30;99.90;;;;;;5146679;27;20285;-70
2021/12/18 12:22:36;;;;;;;25.03;13.40;;;3.30;99.90;;;;;;5138633;27;20195;-70
2021/12/18 12:25:06;;;;;;;21.00;12.90;;;3.30;99.90;;;;;;5135867;27;20241;-69
2021/12/18 12:27:36;;;;;;;21.27;12.20;;;3.30;99.90;;;;;;5130745;27;20237;-72
2021/12/18 12:30:07;;;;;;;21.07;12.90;;;3.30;99.90;;;;;;5130760;27;20708;-70
2021/12/18 12:32:35;;;;;;;25.83;12.80;;;3.30;99.90;;;;;;5150108;27;20671;-70
2021/12/18 12:35:06;;;;;;;25.77;14.00;;;3.30;99.90;;;;;;5136434;27;20425;-70
2021/12/18 12:37:36;;;;;;;26.53;12.80;;;3.30;99.90;;;;;;5136152;27;20211;-71
2021/12/18 12:40:07;;;;;;;21.53;13.10;;;3.30;99.90;;;;;;5144442;27;20235;-70
2021/12/18 12:42:35;;;;;;;23.87;14.40;;;3.30;99.90;;;;;;5119905;27;20218;-71
2021/12/18 12:45:08;;;;;;;25.80;13.27;;;3.30;99.90;;;;;;5125288;27;20207;-70
2021/12/18 12:47:35;;;;;;;22.13;12.70;;;3.30;99.90;;;;;;5148148;27;20207;-70
2021/12/18 12:50:29;;;;;;;24.17;13.47;;;3.30;99.90;;;;;;5134666;27;20252;-69
2021/12/18 12:52:59;;;;;;;23.13;13.13;;;3.20;99.90;;;;;;5150734;27;20225;-69
2021/12/18 12:55:28;;;;;;;19.73;13.03;;;3.20;99.90;;;;;;5134732;27;20614;-67
2021/12/18 12:57:56;;;;;;;22.80;13.63;;;3.20;99.90;;;;;;5133555;27;20286;-67
2021/12/18 13:00:46;;;;;;;21.60;12.50;;;3.20;99.90;;;;;;5134318;27;20233;-67
2021/12/18 13:03:32;;;;;;;22.27;12.20;;;3.20;99.90;;;;;;5134149;27;20336;-68
2021/12/18 13:06:08;;;;;;;21.80;11.87;;;3.30;99.90;;;;;;5133842;27;20203;-66
2021/12/18 13:08:38;;;;;;;26.30;12.90;;;3.30;99.90;;;;;;5137637;27;20199;-67
2021/12/18 13:11:08;;;;;;;19.17;11.67;;;3.20;99.90;;;;;;5142075;27;20303;-67
2021/12/18 13:13:37;;;;;;;23.97;13.93;;;3.20;99.90;;;;;;5144285;27;20198;-67
2021/12/18 13:16:10;;;;;;;20.20;13.37;;;3.20;99.90;;;;;;5151576;27;20195;-67
2021/12/18 13:18:39;;;;;;;27.77;13.63;;;3.20;99.90;;;;;;5131461;27;20187;-68
2021/12/18 13:21:09;;;;;;;22.60;14.47;;;3.20;99.90;;;;;;5129363;27;20294;-67
2021/12/18 13:23:45;;;;;;;21.77;13.53;;;3.20;99.90;;;;;;5134898;27;20690;-68
2021/12/18 13:26:14;;;;;;;24.93;12.93;;;3.30;99.90;;;;;;5134049;27;20325;-66
2021/12/18 13:28:50;;;;;;;20.03;13.33;;;3.30;99.90;;;;;;5139710;27;20228;-68
2021/12/18 13:31:17;;;;;;;22.47;12.77;;;3.30;99.90;;;;;;5135404;27;20264;-68